createdAt,value
2018-10-05T00:01:50.289Z,3.3
2018-10-05T00:04:50.338Z,3.2
2018-10-05T00:07:50.253Z,3.4
2018-10-05T00:10:50.490Z,3.2
2018-10-05T00:13:50.682Z,3.7
2018-10-05T00:16:50.710Z,3.8
2018-10-05T00:19:50.308Z,3.7
2018-10-05T00:22:50.751Z,3.4
2018-10-05T00:25:50.756Z,3.2
2018-10-05T00:28:50.387Z,3.4
2018-10-05T00:31:50.517Z,3.2
2018-10-05T00:34:50.421Z,3
2018-10-05T00:37:50.461Z,3
2018-10-05T00:40:50.396Z,3
2018-10-05T00:43:50.232Z,3.3
2018-10-05T00:46:50.785Z,3.3
2018-10-05T00:49:50.333Z,3.6
2018-10-05T00:52:51.012Z,3.7
2018-10-05T00:55:51.174Z,3.3
2018-10-05T00:58:50.396Z,3.4
2018-10-05T01:01:52.317Z,3.2
2018-10-05T01:04:50.324Z,3.1
2018-10-05T01:07:50.405Z,3.3
2018-10-05T01:10:50.213Z,3.3
2018-10-05T01:13:50.283Z,3.3
2018-10-05T01:16:50.232Z,3.1
2018-10-05T01:19:50.316Z,3.1
2018-10-05T01:22:50.542Z,3.1
2018-10-05T01:25:50.273Z,3.3
2018-10-05T01:28:50.279Z,3.3
2018-10-05T01:31:50.523Z,3.1
2018-10-05T01:34:50.478Z,3
2018-10-05T01:37:50.403Z,3.1
2018-10-05T01:40:50.392Z,3
2018-10-05T01:43:50.340Z,3.6
2018-10-05T01:46:50.410Z,3.3
2018-10-05T01:49:50.635Z,3.2
2018-10-05T01:52:50.214Z,3.1
2018-10-05T01:55:50.424Z,2.9
2018-10-05T01:58:50.319Z,3
2018-10-05T02:01:50.341Z,3.4
2018-10-05T02:04:50.196Z,3.3
2018-10-05T02:07:50.209Z,3.1
2018-10-05T02:10:50.226Z,3.1
2018-10-05T02:13:50.464Z,3.5
2018-10-05T02:16:50.202Z,3.5
2018-10-05T02:19:50.218Z,3.3
2018-10-05T02:22:50.369Z,2.9
2018-10-05T02:25:50.515Z,2.8
2018-10-05T02:28:50.507Z,3
2018-10-05T02:31:50.401Z,2.8
2018-10-05T02:34:50.527Z,2.8
2018-10-05T02:37:50.356Z,2.8
2018-10-05T02:40:50.612Z,2.7
2018-10-05T02:43:50.672Z,3
2018-10-05T02:46:50.393Z,3
2018-10-05T02:49:50.414Z,3.1
2018-10-05T02:52:50.765Z,2.9
2018-10-05T02:55:50.185Z,2.8
2018-10-05T02:58:50.832Z,2.8
2018-10-05T03:01:50.146Z,2.7
2018-10-05T03:04:50.353Z,2.6
2018-10-05T03:07:50.474Z,2.8
2018-10-05T03:10:50.605Z,2.7
2018-10-05T03:13:50.317Z,2.6
2018-10-05T03:16:50.170Z,2.9
2018-10-05T03:19:52.087Z,2.9
2018-10-05T03:22:50.308Z,2.7
2018-10-05T03:25:50.407Z,2.8
2018-10-05T03:28:50.463Z,2.7
2018-10-05T03:31:50.234Z,3
2018-10-05T03:34:50.321Z,2.9
2018-10-05T03:37:50.305Z,2.8
2018-10-05T03:40:50.671Z,2.6
2018-10-05T03:43:50.411Z,2.6
2018-10-05T03:46:50.456Z,2.6
2018-10-05T03:49:50.413Z,2.6
2018-10-05T03:52:50.282Z,2.6
2018-10-05T03:55:50.245Z,2.7
2018-10-05T03:58:50.539Z,2.6
2018-10-05T04:01:50.085Z,2.5
2018-10-05T04:04:50.287Z,2.5
2018-10-05T04:07:50.212Z,2.6
2018-10-05T04:10:50.579Z,2.6
2018-10-05T04:13:50.492Z,2.5
2018-10-05T04:16:50.439Z,2.5
2018-10-05T04:19:50.221Z,2.5
2018-10-05T04:22:50.615Z,2.4
2018-10-05T04:25:50.798Z,2.6
2018-10-05T04:28:50.462Z,2.5
2018-10-05T04:31:50.252Z,2.7
2018-10-05T04:34:50.129Z,2.5
2018-10-05T04:37:50.339Z,2.4
2018-10-05T04:40:50.263Z,2.4
2018-10-05T04:43:50.397Z,2.4
2018-10-05T04:46:50.119Z,2.3
2018-10-05T04:49:50.391Z,2.4
2018-10-05T04:52:50.271Z,2.3
2018-10-05T04:55:50.329Z,2.3
2018-10-05T04:58:50.114Z,2.2
2018-10-05T05:01:50.103Z,2.3
2018-10-05T05:04:50.262Z,2.3
2018-10-05T05:07:50.179Z,2.3
2018-10-05T05:10:50.156Z,2.3
2018-10-05T05:13:50.189Z,2.3
2018-10-05T05:16:50.170Z,2.3
2018-10-05T05:19:50.132Z,2.5
2018-10-05T05:22:50.205Z,2.6
2018-10-05T05:25:50.229Z,2.6
2018-10-05T05:28:50.603Z,2.4
2018-10-05T05:31:50.472Z,2.5
2018-10-05T05:34:50.304Z,2.3
2018-10-05T05:37:50.453Z,2.3
2018-10-05T05:40:50.211Z,2.3
2018-10-05T05:43:50.297Z,2.3
2018-10-05T05:46:51.503Z,2.2
2018-10-05T05:49:50.206Z,2.2
2018-10-05T05:52:50.204Z,2.3
2018-10-05T05:55:50.466Z,2.3
2018-10-05T05:58:50.265Z,2.1
2018-10-05T06:01:50.177Z,2.2
2018-10-05T06:04:50.348Z,2.1
2018-10-05T06:07:50.148Z,2.1
2018-10-05T06:10:50.148Z,2.2
2018-10-05T06:13:50.373Z,2.5
2018-10-05T06:16:50.243Z,2.4
2018-10-05T06:19:50.264Z,2.4
2018-10-05T06:22:50.265Z,2.3
2018-10-05T06:25:50.211Z,2.3
2018-10-05T06:28:50.064Z,2.3
2018-10-05T06:31:50.167Z,2.2
2018-10-05T06:34:50.240Z,2.2
2018-10-05T06:37:50.211Z,2.2
2018-10-05T06:40:50.216Z,2.2
2018-10-05T06:43:50.197Z,2.1
2018-10-05T06:46:50.333Z,2.1
2018-10-05T06:49:50.282Z,2.2
2018-10-05T06:52:50.072Z,2.2
2018-10-05T06:55:50.487Z,2.2
2018-10-05T06:58:50.248Z,2.2
2018-10-05T07:01:51.848Z,2.3
2018-10-05T07:04:50.348Z,2.2
2018-10-05T07:07:52.384Z,2.3
2018-10-05T07:10:50.499Z,2.4
2018-10-05T07:13:50.261Z,2.3
2018-10-05T07:16:51.183Z,2.2
2018-10-05T07:19:50.242Z,2.2
2018-10-05T07:22:50.299Z,2.2
2018-10-05T07:25:50.305Z,2.2
2018-10-05T07:28:51.240Z,2.1
2018-10-05T07:31:51.066Z,2.1
2018-10-05T07:34:50.758Z,2.2
2018-10-05T07:37:50.588Z,2.2
2018-10-05T07:40:50.212Z,2.1
2018-10-05T07:43:50.412Z,2.1
2018-10-05T07:46:50.387Z,2.1
2018-10-05T07:49:50.114Z,2.1
2018-10-05T07:52:50.298Z,2.3
2018-10-05T07:55:49.950Z,2.2
2018-10-05T07:58:50.158Z,2.1
2018-10-05T08:01:50.290Z,2.1
2018-10-05T08:04:50.098Z,2.1
2018-10-05T08:07:50.163Z,2
2018-10-05T08:10:50.441Z,2.1
2018-10-05T08:13:50.315Z,2.1
2018-10-05T08:16:50.035Z,2.2
2018-10-05T08:19:50.163Z,2.2
2018-10-05T08:22:50.367Z,2.1
2018-10-05T08:25:50.305Z,2.1
2018-10-05T08:28:50.483Z,2.1
2018-10-05T08:31:50.362Z,2.1
2018-10-05T08:34:50.209Z,2.1
2018-10-05T08:37:50.507Z,2.3
2018-10-05T08:40:50.098Z,2.2
2018-10-05T08:43:50.748Z,2.4
2018-10-05T08:46:50.132Z,2.3
2018-10-05T08:49:50.031Z,2.4
2018-10-05T08:52:50.507Z,2.2
2018-10-05T08:55:50.449Z,2.2
2018-10-05T08:58:50.008Z,2.1
2018-10-05T09:01:50.111Z,2.1
2018-10-05T09:04:50.495Z,2.1
2018-10-05T09:07:50.097Z,2.1
2018-10-05T09:10:50.149Z,2.2
2018-10-05T09:13:49.945Z,2.1
2018-10-05T09:16:50.373Z,2.2
2018-10-05T09:19:50.160Z,2.2
2018-10-05T09:22:50.337Z,2.2
2018-10-05T09:25:49.933Z,2
2018-10-05T09:28:50.239Z,2.2
2018-10-05T09:31:50.181Z,2.1
2018-10-05T09:34:50.183Z,2.2
2018-10-05T09:37:52.227Z,2.2
2018-10-05T09:40:49.980Z,2.2
2018-10-05T09:43:50.319Z,2.3
2018-10-05T09:46:50.477Z,2.3
2018-10-05T09:49:50.240Z,2.1
2018-10-05T09:52:49.988Z,2.5
2018-10-05T09:55:50.364Z,2.3
2018-10-05T09:58:50.363Z,2.3
2018-10-05T10:01:50.488Z,2.3
2018-10-05T10:04:49.974Z,2.2
2018-10-05T10:07:51.123Z,2.2
2018-10-05T10:10:50.247Z,2.1
2018-10-05T10:13:51.359Z,2.2
2018-10-05T10:16:50.242Z,2.1
2018-10-05T10:19:50.502Z,2.1
2018-10-05T10:22:50.885Z,2.1
2018-10-05T10:25:50.236Z,2.1
2018-10-05T10:28:52.350Z,2.1
2018-10-05T10:31:50.256Z,2.1
2018-10-05T10:34:50.731Z,2.1
2018-10-05T10:37:50.171Z,2
2018-10-05T10:40:50.628Z,2
2018-10-05T10:43:49.984Z,2
2018-10-05T10:46:50.143Z,2
2018-10-05T10:49:50.071Z,2
2018-10-05T10:52:49.995Z,2
2018-10-05T10:55:50.095Z,2
2018-10-05T10:58:50.031Z,1.9
2018-10-05T11:01:50.082Z,2
2018-10-05T11:04:52.454Z,2.1
2018-10-05T11:07:50.155Z,2
2018-10-05T11:10:50.069Z,2
2018-10-05T11:13:50.261Z,2
2018-10-05T11:16:50.308Z,2
2018-10-05T11:19:50.115Z,3.8
2018-10-05T11:22:50.079Z,3.7
2018-10-05T11:25:49.993Z,3
2018-10-05T11:28:50.119Z,3.1
2018-10-05T11:31:50.349Z,2.5
2018-10-05T11:34:50.002Z,2.5
2018-10-05T11:37:50.192Z,2.8
2018-10-05T11:40:51.616Z,2.4
2018-10-05T11:43:50.161Z,2.3
2018-10-05T11:46:50.056Z,2.4
2018-10-05T11:49:50.323Z,2.3
2018-10-05T11:52:50.101Z,2.4
2018-10-05T11:55:49.966Z,2.4
2018-10-05T11:58:50.068Z,2.3
2018-10-05T12:01:49.999Z,2.2
2018-10-05T12:04:50.573Z,3
2018-10-05T12:07:50.306Z,2.5
2018-10-05T12:10:50.166Z,2.3
2018-10-05T12:13:51.632Z,2.2
2018-10-05T12:16:49.931Z,2.1
2018-10-05T12:19:50.934Z,2
2018-10-05T12:22:49.953Z,2.1
2018-10-05T12:25:50.044Z,2.1
2018-10-05T12:28:50.143Z,2
2018-10-05T12:31:49.968Z,2
2018-10-05T12:34:50.654Z,2.2
2018-10-05T12:37:50.198Z,2.3
2018-10-05T12:40:50.006Z,2.1
2018-10-05T12:43:50.118Z,2
2018-10-05T12:46:50.127Z,2
2018-10-05T12:49:49.992Z,1.9
2018-10-05T12:52:50.346Z,2.2
2018-10-05T12:55:50.085Z,2
2018-10-05T12:58:49.980Z,1.9
2018-10-05T13:01:50.165Z,1.8
2018-10-05T13:04:51.140Z,2.2
2018-10-05T13:07:50.171Z,2
2018-10-05T13:10:50.107Z,1.9
2018-10-05T13:13:49.947Z,1.9
2018-10-05T13:16:49.911Z,1.9
2018-10-05T13:19:50.360Z,1.8
2018-10-05T13:22:50.271Z,1.8
2018-10-05T13:25:50.337Z,2
2018-10-05T13:28:50.413Z,2
2018-10-05T13:31:50.085Z,1.8
2018-10-05T13:34:50.474Z,1.8
2018-10-05T13:37:50.164Z,1.8
2018-10-05T13:40:50.055Z,1.8
2018-10-05T13:43:49.977Z,1.9
2018-10-05T13:46:49.930Z,2.1
2018-10-05T13:49:50.167Z,1.9
2018-10-05T13:52:50.904Z,1.9
2018-10-05T13:55:49.858Z,1.8
2018-10-05T13:58:50.544Z,1.8
2018-10-05T14:01:50.441Z,1.8
2018-10-05T14:04:49.969Z,1.8
2018-10-05T14:07:50.083Z,1.8
2018-10-05T14:10:50.835Z,1.8
2018-10-05T14:13:50.365Z,1.8
2018-10-05T14:16:50.146Z,2.3
2018-10-05T14:19:49.970Z,3
2018-10-05T14:22:50.272Z,3.4
2018-10-05T14:25:50.427Z,6.9
2018-10-05T14:28:50.228Z,13.7
2018-10-05T14:31:50.458Z,11.1
2018-10-05T14:34:50.075Z,10.8
2018-10-05T14:37:51.055Z,12.1
2018-10-05T14:40:50.606Z,10.4
2018-10-05T14:43:50.442Z,11.4
2018-10-05T14:46:50.303Z,10.7
2018-10-05T14:49:50.075Z,8.7
2018-10-05T14:52:50.223Z,8.4
2018-10-05T14:55:50.178Z,7.2
2018-10-05T14:58:49.992Z,8.8
2018-10-05T15:01:50.089Z,7
2018-10-05T15:04:50.111Z,6.4
2018-10-05T15:07:50.011Z,6.1
2018-10-05T15:10:50.368Z,6.1
2018-10-05T15:13:50.153Z,6.3
2018-10-05T15:16:50.221Z,10.9
2018-10-05T15:19:50.085Z,11.8
2018-10-05T15:22:50.081Z,11.6
2018-10-05T15:25:50.111Z,9.7
2018-10-05T15:28:50.075Z,11.7
2018-10-05T15:31:49.899Z,9.8
2018-10-05T15:34:50.203Z,9.1
2018-10-05T15:37:49.980Z,8.4
2018-10-05T15:40:49.971Z,7.9
2018-10-05T15:43:50.224Z,7.7
2018-10-05T15:46:49.893Z,7.3
2018-10-05T15:49:50.110Z,7.2
2018-10-05T15:52:50.822Z,7.1
2018-10-05T15:55:50.009Z,6.9
2018-10-05T15:58:50.183Z,6
2018-10-05T16:01:50.209Z,6.5
2018-10-05T16:04:49.950Z,5.4
2018-10-05T16:07:50.020Z,5.7
2018-10-05T16:10:49.928Z,5.2
2018-10-05T16:13:50.004Z,5.7
2018-10-05T16:16:50.033Z,4.9
2018-10-05T16:19:50.331Z,5.1
2018-10-05T16:22:49.862Z,5
2018-10-05T16:25:49.821Z,5.2
2018-10-05T16:28:50.130Z,5
2018-10-05T16:31:50.090Z,4.9
2018-10-05T16:34:50.263Z,5.3
2018-10-05T16:37:50.145Z,5
2018-10-05T16:40:49.824Z,4.9
2018-10-05T16:43:51.506Z,4.7
2018-10-05T16:46:49.994Z,4.1
2018-10-05T16:49:51.600Z,4.6
2018-10-05T16:52:50.147Z,5.1
2018-10-05T16:55:50.283Z,4.5
2018-10-05T16:58:49.936Z,4.6
2018-10-05T17:01:49.867Z,5
2018-10-05T17:04:49.896Z,4.3
2018-10-05T17:07:50.561Z,3.8
2018-10-05T17:10:51.584Z,5.5
2018-10-05T17:13:50.205Z,4.5
2018-10-05T17:16:50.514Z,4.1
2018-10-05T17:19:50.245Z,4.7
2018-10-05T17:22:49.876Z,5.1
2018-10-05T17:25:50.271Z,4.6
2018-10-05T17:28:50.115Z,6
2018-10-05T17:31:49.835Z,5.2
2018-10-05T17:34:50.274Z,4.7
2018-10-05T17:37:50.633Z,4.2
2018-10-05T17:40:49.896Z,5.6
2018-10-05T17:43:49.760Z,6.4
2018-10-05T17:46:49.725Z,7.8
2018-10-05T17:49:49.963Z,7.2
2018-10-05T17:52:49.867Z,6
2018-10-05T17:55:52.781Z,6.4
2018-10-05T17:58:50.290Z,6.4
2018-10-05T18:01:50.927Z,5.6
2018-10-05T18:04:49.866Z,5.2
2018-10-05T18:07:49.764Z,4.4
2018-10-05T18:10:49.737Z,4.8
2018-10-05T18:13:50.268Z,5.1
2018-10-05T18:16:50.109Z,4.6
2018-10-05T18:19:49.843Z,4.2
2018-10-05T18:22:49.806Z,4.2
2018-10-05T18:25:49.935Z,4.5
2018-10-05T18:28:50.036Z,4
2018-10-05T18:31:50.472Z,4
2018-10-05T18:34:49.929Z,4.5
2018-10-05T18:37:49.962Z,6
2018-10-05T18:40:50.295Z,5.6
2018-10-05T18:43:50.038Z,6
2018-10-05T18:46:50.487Z,4.6
2018-10-05T18:49:50.038Z,4.2
2018-10-05T18:52:50.100Z,4.4
2018-10-05T18:55:50.346Z,4.8
2018-10-05T18:58:50.196Z,4.1
2018-10-05T19:01:50.169Z,4.2
2018-10-05T19:04:50.080Z,4.2
2018-10-05T19:07:49.766Z,4.8
2018-10-05T19:10:49.908Z,5
2018-10-05T19:13:51.255Z,4.3
2018-10-05T19:16:49.866Z,4.8
2018-10-05T19:19:49.987Z,4.4
2018-10-05T19:22:49.856Z,4.2
2018-10-05T19:25:50.220Z,4
2018-10-05T19:28:49.892Z,4.5
2018-10-05T19:31:49.731Z,3.8
2018-10-05T19:34:50.298Z,3.6
2018-10-05T19:37:49.849Z,3.8
2018-10-05T19:40:49.859Z,3.3
2018-10-05T19:43:49.746Z,3.4
2018-10-05T19:46:50.035Z,3.2
2018-10-05T19:49:49.874Z,3.2
2018-10-05T19:52:50.791Z,4.1
2018-10-05T19:55:49.916Z,4
2018-10-05T19:58:49.825Z,6.4
2018-10-05T20:01:51.083Z,7.1
2018-10-05T20:04:50.785Z,6.3
2018-10-05T20:07:50.122Z,6.6
2018-10-05T20:10:49.651Z,5.8
2018-10-05T20:13:50.283Z,4.9
2018-10-05T20:16:49.956Z,4.5
2018-10-05T20:19:49.853Z,4
2018-10-05T20:22:50.319Z,3.7
2018-10-05T20:25:49.926Z,3.7
2018-10-05T20:28:49.905Z,4
2018-10-05T20:31:49.935Z,3.9
2018-10-05T20:34:50.061Z,4.1
2018-10-05T20:37:51.842Z,4
2018-10-05T20:40:49.864Z,3.5
2018-10-05T20:43:49.958Z,3.8
2018-10-05T20:46:50.609Z,3.6
2018-10-05T20:49:49.950Z,3.4
2018-10-05T20:52:49.766Z,3.3
2018-10-05T20:55:50.345Z,3.3
2018-10-05T20:58:50.258Z,3.2
2018-10-05T21:01:50.204Z,3.3
2018-10-05T21:04:50.232Z,3.4
2018-10-05T21:07:49.883Z,3.6
2018-10-05T21:10:49.942Z,3.5
2018-10-05T21:13:49.987Z,3
2018-10-05T21:16:50.215Z,3.3
2018-10-05T21:19:50.232Z,3.2
2018-10-05T21:22:49.746Z,3.9
2018-10-05T21:25:49.763Z,3.5
2018-10-05T21:28:49.936Z,3.5
2018-10-05T21:31:49.828Z,3.3
2018-10-05T21:34:49.900Z,3.5
2018-10-05T21:37:50.148Z,3.3
2018-10-05T21:40:49.807Z,3.2
2018-10-05T21:43:49.794Z,3
2018-10-05T21:46:49.938Z,2.9
2018-10-05T21:49:50.143Z,2.8
2018-10-05T21:52:50.059Z,2.8
2018-10-05T21:55:49.734Z,2.6
2018-10-05T21:58:49.836Z,2.7
2018-10-05T22:01:49.876Z,3.1
2018-10-05T22:04:49.749Z,2.9
2018-10-05T22:07:49.835Z,3.1
2018-10-05T22:10:49.748Z,2.9
2018-10-05T22:13:50.018Z,3.1
2018-10-05T22:16:49.698Z,2.9
2018-10-05T22:19:50.227Z,2.8
2018-10-05T22:22:49.725Z,2.9
2018-10-05T22:25:49.792Z,3.1
2018-10-05T22:28:49.791Z,2.9
2018-10-05T22:31:49.938Z,2.9
2018-10-05T22:34:49.780Z,2.8
2018-10-05T22:37:49.840Z,2.9
2018-10-05T22:40:49.833Z,3
2018-10-05T22:43:50.351Z,2.9
2018-10-05T22:46:49.802Z,3.7
2018-10-05T22:49:49.852Z,3.6
2018-10-05T22:52:50.092Z,3.2
2018-10-05T22:55:49.898Z,3.1
2018-10-05T22:58:49.708Z,2.9
2018-10-05T23:01:49.707Z,3
2018-10-05T23:04:50.232Z,2.9
2018-10-05T23:07:49.738Z,2.8
2018-10-05T23:10:49.991Z,2.8
2018-10-05T23:13:50.507Z,2.8
2018-10-05T23:16:49.760Z,2.7
2018-10-05T23:19:49.892Z,2.7
2018-10-05T23:22:49.751Z,2.7
2018-10-05T23:25:49.885Z,2.6
2018-10-05T23:28:49.651Z,2.7
2018-10-05T23:31:50.055Z,2.8
2018-10-05T23:34:49.911Z,2.7
2018-10-05T23:37:49.804Z,3.4
2018-10-05T23:40:49.599Z,3
2018-10-05T23:43:49.903Z,3
2018-10-05T23:46:49.912Z,2.9
2018-10-05T23:49:50.076Z,2.9
2018-10-05T23:52:49.698Z,3
2018-10-05T23:55:50.102Z,2.8
2018-10-05T23:58:50.237Z,3
